Glen, Nebraska
Current Conditions -  °F | °C
As of 6:53 PM on Wednesday 22 Oct 2014 (Local Time) from KCDR Reporting Station
Clear Clear  
Wind Chill: 42°   Ceiling: Unl
Heat Index: 46°   Visibility: 10mi
Dew Point: 33°   Wind: 7mph
Humidity: 61%   Direction: 170°S
Pressure: 30.03"   Gusts: NA
Location:  42.7426°N, 103.391°W
Report Text: KCDR 230053Z AUTO 17006KT 10SM CLR 08/01 A3003 RMK AO2 SLP179 T00780006
Loading
Personal Weather Stations






























Interactive Weather Map
Tropical Storm Tracking
New forecast layout! Learn more

10-Day Weather Forecast

Advertisements
Track Severe Weather on mobile